Time;durP1;ratioP1;P1;durP2;ratioP2;P2;SDS_P1;SDS_P2;PMS_P1;PMS_P2;Temp;Humidity;BMP_temperature;BMP_pressure;BME280_temperature;BME280_humidity;BME280_pressure;Samples;Min_cycle;Max_cycle;Signal;HPM_P1;HPM_P2
2021/01/29 00:02:04;;;;;;;1.83;1.73;;;11.80;50.10;;;;;;10457577;28;20247;-71
2021/01/29 00:07:07;;;;;;;1.60;1.50;;;11.80;50.10;;;;;;10461596;28;20763;-70
2021/01/29 00:12:10;;;;;;;1.67;1.57;;;11.80;49.90;;;;;;10451729;28;20229;-70
2021/01/29 00:17:13;;;;;;;1.40;1.40;;;11.80;50.00;;;;;;10448529;28;20251;-70
2021/01/29 00:22:15;;;;;;;1.40;1.30;;;11.80;50.10;;;;;;10460037;28;20233;-71
2021/01/29 00:27:18;;;;;;;1.10;1.10;;;11.80;49.70;;;;;;10465703;28;20232;-71
2021/01/29 00:32:21;;;;;;;1.50;1.40;;;11.80;49.50;;;;;;10455122;28;20252;-71
2021/01/29 00:37:23;;;;;;;1.40;1.30;;;11.80;49.40;;;;;;10455272;28;20240;-70
2021/01/29 00:42:25;;;;;;;1.30;1.20;;;11.80;49.30;;;;;;10456959;28;20307;-70
2021/01/29 00:47:28;;;;;;;1.27;1.13;;;11.80;49.10;;;;;;10453821;28;20224;-71
2021/01/29 00:52:31;;;;;;;1.30;1.20;;;11.80;49.20;;;;;;10460415;28;20227;-70
2021/01/29 00:57:33;;;;;;;1.20;1.10;;;11.70;49.10;;;;;;10461171;28;20228;-70
2021/01/29 01:02:36;;;;;;;1.40;1.30;;;11.70;49.10;;;;;;10461818;28;20273;-70
2021/01/29 01:07:38;;;;;;;1.13;1.13;;;11.70;49.30;;;;;;10450778;28;20240;-71
2021/01/29 01:12:41;;;;;;;1.30;1.30;;;11.80;49.30;;;;;;10455791;28;20229;-70
2021/01/29 01:17:44;;;;;;;1.10;1.10;;;11.80;49.30;;;;;;10455080;28;20254;-70
2021/01/29 01:22:47;;;;;;;1.20;1.20;;;11.80;49.40;;;;;;10452786;28;20316;-70
2021/01/29 01:27:50;;;;;;;1.30;1.20;;;11.80;49.40;;;;;;10455542;28;20709;-71
2021/01/29 01:32:53;;;;;;;1.60;1.50;;;11.80;49.50;;;;;;10453608;28;20224;-69
2021/01/29 01:37:56;;;;;;;1.37;1.30;;;11.80;49.50;;;;;;10459039;28;20721;-69
2021/01/29 01:42:58;;;;;;;1.50;1.40;;;11.80;49.60;;;;;;10446271;28;20232;-70
2021/01/29 01:48:05;;;;;;;1.57;1.10;;;11.80;49.50;;;;;;10456446;28;20324;-69
2021/01/29 01:53:18;;;;;;;1.50;1.40;;;11.80;49.50;;;;;;10422463;28;20256;-70
2021/01/29 01:58:21;;;;;;;1.50;1.40;;;11.80;49.50;;;;;;10413740;28;20259;-70
2021/01/29 02:03:29;;;;;;;1.10;1.10;;;11.90;49.50;;;;;;10425387;28;20309;-69
2021/01/29 02:08:36;;;;;;;2.40;1.20;;;11.90;49.50;;;;;;10417650;28;20317;-70
2021/01/29 02:13:38;;;;;;;1.73;1.20;;;11.90;49.40;;;;;;10421841;28;20229;-70
2021/01/29 02:19:02;;;;;;;1.10;1.10;;;11.90;49.30;;;;;;10418285;28;20233;-70
2021/01/29 02:24:49;;;;;;;1.07;1.07;;;11.90;49.20;;;;;;10413339;28;20584;-70
2021/01/29 02:30:14;;;;;;;1.30;1.20;;;11.90;49.20;;;;;;10420347;28;20227;-70
2021/01/29 02:35:50;;;;;;;1.30;1.10;;;11.90;49.30;;;;;;10402657;28;20224;-70
2021/01/29 02:41:03;;;;;;;0.90;0.90;;;11.90;49.20;;;;;;10410419;28;20724;-70
2021/01/29 02:46:12;;;;;;;1.13;1.13;;;11.80;49.20;;;;;;10422664;28;20225;-70
2021/01/29 02:51:20;;;;;;;1.07;1.07;;;11.80;49.20;;;;;;10418258;28;20483;-70
2021/01/29 02:56:31;;;;;;;1.10;1.10;;;11.70;49.20;;;;;;10413501;28;20242;-69
2021/01/29 03:01:37;;;;;;;1.10;1.07;;;11.70;49.30;;;;;;10411896;28;20228;-70
2021/01/29 03:06:47;;;;;;;1.43;1.33;;;11.70;49.10;;;;;;10419246;28;20786;-70
2021/01/29 03:11:58;;;;;;;1.43;1.33;;;11.70;49.20;;;;;;10416723;28;20238;-74
2021/01/29 03:17:09;;;;;;;1.20;1.20;;;11.70;49.30;;;;;;10414564;28;20229;-73
2021/01/29 03:22:17;;;;;;;1.30;1.30;;;11.70;49.50;;;;;;10417349;28;20221;-72
2021/01/29 03:27:23;;;;;;;1.47;1.47;;;11.70;49.40;;;;;;10412236;28;20229;-72
2021/01/29 03:32:28;;;;;;;1.53;1.50;;;11.80;49.60;;;;;;10411536;28;20221;-72
2021/01/29 03:37:36;;;;;;;1.80;1.70;;;11.80;49.50;;;;;;10411747;28;20239;-72
2021/01/29 03:42:50;;;;;;;1.60;1.50;;;11.80;49.50;;;;;;10413584;28;20263;-72
2021/01/29 03:47:59;;;;;;;1.60;1.50;;;11.80;49.70;;;;;;10413913;28;20230;-72
2021/01/29 03:53:14;;;;;;;1.70;1.60;;;11.80;49.70;;;;;;10413425;28;20597;-72
2021/01/29 03:58:29;;;;;;;1.60;1.50;;;11.80;49.70;;;;;;10415959;28;20235;-72
2021/01/29 04:03:38;;;;;;;1.57;1.50;;;11.80;49.90;;;;;;10406434;28;20305;-72
2021/01/29 04:08:44;;;;;;;1.30;1.30;;;11.90;50.00;;;;;;10424007;28;20304;-72
2021/01/29 04:13:52;;;;;;;1.40;1.40;;;11.80;50.00;;;;;;10408712;28;20229;-72
2021/01/29 04:18:59;;;;;;;1.63;1.53;;;11.80;50.20;;;;;;10410571;28;20325;-72
2021/01/29 04:24:09;;;;;;;1.40;1.03;;;11.80;50.20;;;;;;10411272;28;20293;-72
2021/01/29 04:29:16;;;;;;;1.23;1.23;;;11.80;50.40;;;;;;10418661;28;20258;-72
2021/01/29 04:34:21;;;;;;;1.00;1.00;;;11.80;50.30;;;;;;10422082;28;20588;-72
2021/01/29 04:39:28;;;;;;;1.10;1.10;;;11.80;50.30;;;;;;10405850;28;20304;-72
2021/01/29 04:45:01;;;;;;;0.90;0.90;;;11.80;50.20;;;;;;10409793;28;20229;-72
2021/01/29 04:50:24;;;;;;;0.97;0.97;;;11.80;50.50;;;;;;10412873;28;20221;-71
2021/01/29 04:56:14;;;;;;;1.07;1.00;;;11.80;50.70;;;;;;10413768;28;20334;-72
2021/01/29 05:01:35;;;;;;;0.80;0.80;;;11.80;50.60;;;;;;10340893;28;20396;-72
2021/01/29 05:06:51;;;;;;;0.83;0.83;;;11.80;50.80;;;;;;10442133;28;20224;-72
2021/01/29 05:12:27;;;;;;;1.20;1.10;;;11.80;50.90;;;;;;10460098;28;20705;-72
2021/01/29 05:18:07;;;;;;;0.80;0.80;;;11.80;50.80;;;;;;10442377;28;20289;-72
2021/01/29 05:23:25;;;;;;;0.97;0.83;;;11.80;50.60;;;;;;10463404;27;20226;-72
2021/01/29 05:28:55;;;;;;;0.80;0.80;;;11.80;50.60;;;;;;10453098;28;20225;-72
2021/01/29 05:34:36;;;;;;;0.60;0.60;;;11.90;50.80;;;;;;10464990;27;20315;-72
2021/01/29 05:39:54;;;;;;;1.10;0.70;;;11.90;50.60;;;;;;10467672;28;20307;-72
2021/01/29 05:45:24;;;;;;;0.80;0.70;;;11.90;50.60;;;;;;10475380;28;20228;-72
2021/01/29 05:50:47;;;;;;;0.70;0.70;;;11.90;50.30;;;;;;10459866;28;20300;-72
2021/01/29 05:55:57;;;;;;;0.93;0.70;;;11.90;50.20;;;;;;10460972;28;20286;-72
2021/01/29 06:01:33;;;;;;;0.80;0.60;;;11.90;49.80;;;;;;10465251;28;20633;-72
2021/01/29 06:06:53;;;;;;;0.60;0.60;;;11.90;49.80;;;;;;10463654;28;20715;-72
2021/01/29 06:12:09;;;;;;;0.50;0.50;;;11.90;49.60;;;;;;10457272;28;20228;-72
2021/01/29 06:17:40;;;;;;;0.60;0.60;;;11.90;49.40;;;;;;10450409;28;20231;-72
2021/01/29 06:23:06;;;;;;;0.50;0.50;;;11.80;49.30;;;;;;10454140;28;20217;-72
2021/01/29 06:28:52;;;;;;;0.40;0.40;;;11.80;49.50;;;;;;10464244;27;20216;-71
2021/01/29 06:34:29;;;;;;;0.43;0.43;;;11.80;49.50;;;;;;10418934;28;20315;-72
2021/01/29 06:39:47;;;;;;;0.70;0.70;;;11.70;49.50;;;;;;10461955;28;20217;-72
2021/01/29 06:45:33;;;;;;;0.60;0.60;;;11.70;49.60;;;;;;10459934;28;20367;-72
2021/01/29 06:51:03;;;;;;;1.47;1.17;;;11.70;49.40;;;;;;10457470;28;20224;-72
2021/01/29 06:56:42;;;;;;;0.77;0.77;;;11.60;49.20;;;;;;10466188;28;20664;-72
2021/01/29 07:01:57;;;;;;;0.83;0.60;;;11.50;49.40;;;;;;10456016;28;20229;-72
2021/01/29 07:07:05;;;;;;;1.20;1.10;;;11.50;49.70;;;;;;10467107;28;20308;-72
2021/01/29 07:12:26;;;;;;;0.70;0.70;;;11.50;49.70;;;;;;10473777;28;20275;-71
2021/01/29 07:17:53;;;;;;;0.70;0.70;;;11.50;49.60;;;;;;10481300;28;20739;-72
2021/01/29 07:23:39;;;;;;;0.50;0.50;;;11.50;49.80;;;;;;10465951;28;20628;-72
2021/01/29 07:29:14;;;;;;;0.70;0.70;;;11.50;49.60;;;;;;10465518;28;20232;-71
2021/01/29 07:34:30;;;;;;;1.17;0.70;;;11.60;49.50;;;;;;10475190;28;20307;-72
2021/01/29 07:40:08;;;;;;;0.90;0.90;;;11.60;49.50;;;;;;10466986;28;20323;-72
2021/01/29 07:45:30;;;;;;;1.23;0.60;;;11.60;49.50;;;;;;10407441;28;20239;-73
2021/01/29 07:50:42;;;;;;;0.60;0.60;;;11.60;49.60;;;;;;10457161;28;20244;-72
2021/01/29 07:56:11;;;;;;;1.07;0.97;;;11.70;49.50;;;;;;10476125;28;20235;-72
2021/01/29 08:01:30;;;;;;;0.80;0.70;;;11.70;49.40;;;;;;10465980;28;20225;-72
2021/01/29 08:06:41;;;;;;;0.63;0.63;;;11.70;49.50;;;;;;10468529;28;20231;-72
2021/01/29 08:11:50;;;;;;;0.80;0.80;;;11.70;49.50;;;;;;10472290;28;20224;-73
2021/01/29 08:17:08;;;;;;;0.70;0.70;;;11.80;49.70;;;;;;10477976;28;20228;-72
2021/01/29 08:22:29;;;;;;;0.70;0.60;;;11.80;49.60;;;;;;10471423;28;20313;-72
2021/01/29 08:27:59;;;;;;;0.70;0.70;;;11.90;49.60;;;;;;10465794;28;20766;-73
2021/01/29 08:33:37;;;;;;;0.70;0.70;;;11.90;49.40;;;;;;10469924;28;20217;-73
2021/01/29 08:38:44;;;;;;;0.90;0.90;;;11.90;49.40;;;;;;10437100;28;20577;-73
2021/01/29 08:44:01;;;;;;;2.10;0.70;;;12.00;49.10;;;;;;10465902;28;20717;-73
2021/01/29 08:49:15;;;;;;;0.60;0.60;;;12.00;48.90;;;;;;10473316;28;20311;-73
2021/01/29 08:54:56;;;;;;;0.60;0.60;;;12.00;48.90;;;;;;10463217;28;20227;-74
2021/01/29 09:00:00;;;;;;;0.70;0.60;;;12.00;48.80;;;;;;10454530;28;20235;-74
2021/01/29 09:05:20;;;;;;;1.10;0.97;;;12.00;48.80;;;;;;10472444;28;20225;-74
2021/01/29 09:10:34;;;;;;;0.80;0.80;;;12.10;48.70;;;;;;10467396;28;20228;-74
2021/01/29 09:15:49;;;;;;;0.67;0.67;;;12.10;48.60;;;;;;10467378;28;20250;-70
2021/01/29 09:21:08;;;;;;;0.63;0.63;;;12.10;48.60;;;;;;10453993;28;20265;-71
2021/01/29 09:26:19;;;;;;;0.60;0.60;;;12.20;48.60;;;;;;10456726;28;20223;-70
2021/01/29 09:31:26;;;;;;;1.27;0.80;;;12.20;48.30;;;;;;10459094;28;20413;-71
2021/01/29 09:36:31;;;;;;;0.80;0.80;;;12.20;48.50;;;;;;10455161;28;20233;-71
2021/01/29 09:41:39;;;;;;;1.90;0.80;;;12.20;48.40;;;;;;10454420;28;20315;-70
2021/01/29 09:46:45;;;;;;;0.80;0.80;;;12.30;48.30;;;;;;10445602;28;20736;-70
2021/01/29 09:52:01;;;;;;;1.27;0.80;;;12.30;48.10;;;;;;10451618;28;20517;-70
2021/01/29 09:57:09;;;;;;;0.70;0.70;;;12.20;47.80;;;;;;10452033;28;20569;-70
2021/01/29 10:02:19;;;;;;;1.00;1.00;;;12.20;47.80;;;;;;10442904;28;20244;-70
2021/01/29 10:07:25;;;;;;;0.80;0.80;;;12.20;47.80;;;;;;10458071;28;20229;-71
2021/01/29 10:12:33;;;;;;;1.63;0.80;;;12.30;47.90;;;;;;10457726;28;20224;-70
2021/01/29 10:17:43;;;;;;;0.70;0.70;;;12.30;47.90;;;;;;10466280;28;20231;-70
2021/01/29 10:23:06;;;;;;;1.27;1.17;;;12.30;47.90;;;;;;10472971;28;20574;-70
2021/01/29 10:28:17;;;;;;;1.33;1.10;;;12.40;48.10;;;;;;10472702;28;20748;-70
2021/01/29 10:33:22;;;;;;;1.37;1.27;;;12.50;48.10;;;;;;10469833;28;20224;-70
2021/01/29 10:38:34;;;;;;;2.20;1.97;;;12.60;48.20;;;;;;10460616;28;20245;-70
2021/01/29 10:43:44;;;;;;;1.23;0.90;;;12.70;48.20;;;;;;10465799;28;20231;-70
2021/01/29 10:48:55;;;;;;;0.70;0.70;;;12.70;48.00;;;;;;10466407;28;20375;-71
2021/01/29 10:54:00;;;;;;;1.33;0.70;;;12.80;47.70;;;;;;10465988;28;20654;-70
2021/01/29 10:59:15;;;;;;;0.63;0.63;;;12.90;47.60;;;;;;10467853;28;20234;-71
2021/01/29 11:04:23;;;;;;;1.03;0.70;;;13.00;47.30;;;;;;10466580;28;20236;-70
2021/01/29 11:09:30;;;;;;;0.60;0.60;;;13.10;47.40;;;;;;10459900;28;20229;-70
2021/01/29 11:14:36;;;;;;;1.80;1.40;;;13.10;47.10;;;;;;10461118;28;20223;-70
2021/01/29 11:19:45;;;;;;;1.40;1.30;;;13.00;47.20;;;;;;10458692;28;20767;-70
2021/01/29 11:25:18;;;;;;;1.70;1.60;;;12.90;47.00;;;;;;10459738;28;20689;-69
2021/01/29 11:30:27;;;;;;;2.43;1.70;;;12.70;47.20;;;;;;10438204;28;20219;-70
2021/01/29 11:35:42;;;;;;;1.40;1.20;;;12.60;47.50;;;;;;10467882;28;20229;-70
2021/01/29 11:40:55;;;;;;;1.10;1.00;;;12.50;47.40;;;;;;10460674;28;20250;-66
2021/01/29 11:46:08;;;;;;;0.77;0.77;;;12.50;48.00;;;;;;10454214;28;20241;-72
2021/01/29 11:51:19;;;;;;;1.07;0.80;;;12.50;48.20;;;;;;10459295;28;20256;-72
2021/01/29 11:56:27;;;;;;;0.83;0.67;;;12.70;48.20;;;;;;10451569;28;20774;-72
2021/01/29 12:01:37;;;;;;;1.20;1.10;;;12.80;48.00;;;;;;10457589;28;20217;-72
2021/01/29 12:06:44;;;;;;;1.13;0.80;;;13.00;47.90;;;;;;10459942;28;20246;-72
2021/01/29 12:11:52;;;;;;;1.03;1.03;;;13.20;47.00;;;;;;10466394;28;20755;-72
2021/01/29 12:16:57;;;;;;;1.30;1.20;;;13.30;46.30;;;;;;10474092;28;20239;-72
2021/01/29 12:22:14;;;;;;;1.30;1.20;;;13.40;46.00;;;;;;10468679;28;20320;-72
2021/01/29 12:27:22;;;;;;;1.20;1.10;;;13.40;45.90;;;;;;10468253;28;20491;-72
2021/01/29 12:32:48;;;;;;;1.30;1.20;;;13.40;46.20;;;;;;10458563;28;20253;-72
2021/01/29 12:38:04;;;;;;;1.03;0.90;;;13.40;46.30;;;;;;10460370;28;20260;-72
2021/01/29 12:43:19;;;;;;;0.83;0.80;;;13.50;46.60;;;;;;10454341;28;20211;-72
2021/01/29 12:48:46;;;;;;;1.37;0.90;;;13.60;46.10;;;;;;10451576;28;20262;-72
2021/01/29 12:53:56;;;;;;;1.90;1.10;;;13.60;45.90;;;;;;10458049;28;20254;-72
2021/01/29 12:59:02;;;;;;;1.47;1.30;;;13.60;44.70;;;;;;10461020;28;20575;-72
2021/01/29 13:04:07;;;;;;;1.17;0.90;;;13.60;44.50;;;;;;10472491;28;20602;-72
2021/01/29 13:09:36;;;;;;;1.43;1.27;;;13.50;43.80;;;;;;10469212;28;20233;-72
2021/01/29 13:14:48;;;;;;;2.10;1.60;;;13.50;43.00;;;;;;10459164;28;20276;-72
2021/01/29 13:19:59;;;;;;;2.07;1.27;;;13.60;43.10;;;;;;10457083;28;20358;-72
2021/01/29 13:25:10;;;;;;;2.27;1.70;;;13.60;42.30;;;;;;10456516;28;20220;-72
2021/01/29 13:30:21;;;;;;;1.10;1.00;;;13.70;43.20;;;;;;10465010;28;20220;-72
2021/01/29 13:35:29;;;;;;;2.43;1.00;;;13.80;41.60;;;;;;10457588;28;20248;-72
2021/01/29 13:40:32;;;;;;;3.20;1.10;;;13.80;41.90;;;;;;10465776;28;20224;-71
2021/01/29 13:45:35;;;;;;;1.83;0.90;;;13.80;42.20;;;;;;10471602;28;20243;-68
2021/01/29 13:50:40;;;;;;;1.60;0.97;;;13.80;41.40;;;;;;10470084;28;20231;-71
2021/01/29 13:55:49;;;;;;;1.40;1.00;;;13.80;41.00;;;;;;10468108;28;20749;-71
2021/01/29 14:00:57;;;;;;;1.33;1.00;;;13.70;41.30;;;;;;10478951;28;20290;-71
2021/01/29 14:06:02;;;;;;;1.50;1.10;;;13.70;41.60;;;;;;10462105;28;20231;-71
2021/01/29 14:11:17;;;;;;;2.93;0.90;;;13.70;42.30;;;;;;10480857;28;20216;-72
2021/01/29 14:16:25;;;;;;;1.40;1.10;;;13.70;41.80;;;;;;10460021;28;20235;-71
2021/01/29 14:21:36;;;;;;;2.13;0.90;;;13.70;41.20;;;;;;10472073;27;20330;-71
2021/01/29 14:26:43;;;;;;;0.80;0.70;;;13.60;40.70;;;;;;10473572;27;20247;-72
2021/01/29 14:31:52;;;;;;;2.67;0.90;;;13.50;40.70;;;;;;10470745;28;20249;-72
2021/01/29 14:37:01;;;;;;;2.73;1.00;;;13.30;40.70;;;;;;10463755;28;20233;-72
2021/01/29 14:42:16;;;;;;;1.47;1.03;;;13.30;41.00;;;;;;10462191;28;20221;-71
2021/01/29 14:47:33;;;;;;;1.50;1.10;;;13.20;41.30;;;;;;10462562;28;20221;-71
2021/01/29 14:52:49;;;;;;;2.03;1.13;;;13.10;41.30;;;;;;10453330;28;20231;-71
2021/01/29 14:57:56;;;;;;;1.60;1.13;;;13.10;40.30;;;;;;10470009;28;20267;-71
2021/01/29 15:03:03;;;;;;;2.33;1.10;;;13.00;41.30;;;;;;10457326;28;20225;-71
2021/01/29 15:08:12;;;;;;;2.90;1.30;;;13.00;41.00;;;;;;10458793;28;20237;-71
2021/01/29 15:13:16;;;;;;;2.20;1.20;;;13.10;41.30;;;;;;10459775;28;20724;-73
2021/01/29 15:18:22;;;;;;;1.83;1.00;;;13.10;41.40;;;;;;10462134;28;20605;-73
2021/01/29 15:23:28;;;;;;;2.00;1.20;;;13.10;41.30;;;;;;10467534;27;20299;-73
2021/01/29 15:28:35;;;;;;;2.37;1.10;;;13.10;40.90;;;;;;10467234;27;20226;-73
2021/01/29 15:33:41;;;;;;;2.60;1.70;;;13.00;40.70;;;;;;10470353;27;20718;-73
2021/01/29 15:38:47;;;;;;;2.67;2.40;;;13.00;41.20;;;;;;10454555;28;20228;-73
2021/01/29 15:43:51;;;;;;;2.57;1.30;;;12.90;41.40;;;;;;10462058;27;20221;-73
2021/01/29 15:48:57;;;;;;;2.93;2.50;;;12.80;41.60;;;;;;10449194;28;20251;-73
2021/01/29 15:54:01;;;;;;;1.80;1.53;;;12.70;41.50;;;;;;10455730;28;20590;-73
2021/01/29 15:59:15;;;;;;;1.50;1.40;;;12.50;42.10;;;;;;10453986;28;20300;-73
2021/01/29 16:04:36;;;;;;;1.60;1.10;;;12.50;42.10;;;;;;10461913;28;20650;-73
2021/01/29 16:09:41;;;;;;;0.90;0.90;;;12.30;42.00;;;;;;10454323;28;20800;-73
2021/01/29 16:14:44;;;;;;;1.27;1.17;;;12.30;42.00;;;;;;10467976;28;20323;-73
2021/01/29 16:19:47;;;;;;;0.80;0.80;;;12.10;42.40;;;;;;10461209;28;20233;-73
2021/01/29 16:24:52;;;;;;;1.10;0.90;;;12.10;42.60;;;;;;10456457;28;20221;-73
2021/01/29 16:29:56;;;;;;;0.93;0.90;;;12.10;42.90;;;;;;10457315;28;20233;-73
2021/01/29 16:35:12;;;;;;;2.70;1.80;;;12.00;42.90;;;;;;10453900;28;20660;-73
2021/01/29 16:40:19;;;;;;;1.37;1.20;;;12.00;43.10;;;;;;10448783;28;20228;-73
2021/01/29 16:45:38;;;;;;;1.67;1.57;;;11.90;43.10;;;;;;10469251;28;20847;-73
2021/01/29 16:50:43;;;;;;;1.00;0.90;;;11.90;43.10;;;;;;10446569;28;20224;-73
2021/01/29 16:55:48;;;;;;;0.90;0.90;;;11.80;43.10;;;;;;10465782;28;20243;-73
2021/01/29 17:00:52;;;;;;;1.47;1.10;;;11.70;43.20;;;;;;10464723;28;20252;-73
2021/01/29 17:06:05;;;;;;;1.27;1.17;;;11.50;43.40;;;;;;10456850;28;20228;-72
2021/01/29 17:11:21;;;;;;;1.40;1.30;;;11.50;43.20;;;;;;10464863;28;20225;-73
2021/01/29 17:16:27;;;;;;;1.80;1.40;;;11.50;43.70;;;;;;10451648;28;20312;-72
2021/01/29 17:21:35;;;;;;;2.27;1.30;;;11.50;43.80;;;;;;10474154;28;20243;-73
2021/01/29 17:26:43;;;;;;;5.27;3.37;;;11.40;44.00;;;;;;10450854;28;20261;-72
2021/01/29 17:31:46;;;;;;;1.97;1.40;;;11.40;44.10;;;;;;10472656;28;20225;-72
2021/01/29 17:36:55;;;;;;;1.60;1.50;;;11.40;43.80;;;;;;10462868;28;20228;-73
2021/01/29 17:42:29;;;;;;;1.60;1.50;;;11.30;43.80;;;;;;10453913;28;20336;-72
2021/01/29 17:47:35;;;;;;;1.40;1.30;;;11.20;44.20;;;;;;10423951;28;20769;-72
2021/01/29 17:52:37;;;;;;;1.53;1.17;;;11.10;44.00;;;;;;10427963;28;20228;-72
2021/01/29 17:57:41;;;;;;;2.47;1.83;;;11.10;43.90;;;;;;10432688;28;20722;-72
2021/01/29 18:02:57;;;;;;;2.60;1.57;;;11.10;44.10;;;;;;10455401;28;20252;-73
2021/01/29 18:08:06;;;;;;;1.73;1.63;;;11.10;44.20;;;;;;10471138;28;20310;-73
2021/01/29 18:13:12;;;;;;;1.90;1.70;;;11.00;44.20;;;;;;10461705;28;20225;-73
2021/01/29 18:18:24;;;;;;;1.47;1.37;;;10.90;44.40;;;;;;10457068;28;20233;-73
2021/01/29 18:23:32;;;;;;;1.47;1.37;;;10.90;44.50;;;;;;10465397;28;20231;-73
2021/01/29 18:28:34;;;;;;;1.10;1.00;;;10.80;44.40;;;;;;10465344;28;20233;-73
2021/01/29 18:33:40;;;;;;;1.20;1.10;;;10.70;44.30;;;;;;10455211;28;20723;-73
2021/01/29 18:38:44;;;;;;;1.03;0.97;;;10.70;44.50;;;;;;10459660;28;20391;-73
2021/01/29 18:43:47;;;;;;;1.27;1.17;;;10.60;44.40;;;;;;10465078;28;20248;-73
2021/01/29 18:48:50;;;;;;;1.93;1.83;;;10.60;44.50;;;;;;10465273;28;20727;-72
2021/01/29 18:53:52;;;;;;;1.57;1.10;;;10.50;44.60;;;;;;10460929;28;20236;-72
2021/01/29 18:58:55;;;;;;;1.17;1.07;;;10.50;44.70;;;;;;10451288;28;20243;-72
2021/01/29 19:03:59;;;;;;;1.33;1.20;;;10.50;44.70;;;;;;10450555;28;20282;-72
2021/01/29 19:09:01;;;;;;;1.50;1.03;;;10.50;44.90;;;;;;10450705;28;20232;-72
2021/01/29 19:14:04;;;;;;;1.13;0.93;;;10.50;45.00;;;;;;10464605;28;20220;-73
2021/01/29 19:19:07;;;;;;;1.40;1.10;;;10.40;45.00;;;;;;10462552;28;20240;-72
2021/01/29 19:24:09;;;;;;;1.10;1.00;;;10.40;45.10;;;;;;10464771;27;20594;-72
2021/01/29 19:29:11;;;;;;;1.10;1.00;;;10.40;45.00;;;;;;10456782;27;20267;-72
2021/01/29 19:34:15;;;;;;;1.10;1.00;;;10.40;45.00;;;;;;10461025;28;20232;-72
2021/01/29 19:39:17;;;;;;;1.53;1.13;;;10.50;45.00;;;;;;10468032;28;20304;-72
2021/01/29 19:44:20;;;;;;;1.13;1.00;;;10.50;44.90;;;;;;10465249;28;20239;-72
2021/01/29 19:49:23;;;;;;;1.47;1.00;;;10.50;44.80;;;;;;10460092;28;20224;-72
2021/01/29 19:54:26;;;;;;;1.70;1.20;;;10.50;44.70;;;;;;10475000;27;20231;-72
2021/01/29 19:59:28;;;;;;;1.10;1.00;;;10.50;44.70;;;;;;10473594;27;20232;-72
2021/01/29 20:04:31;;;;;;;2.33;1.47;;;10.40;44.70;;;;;;10471616;28;20220;-72
2021/01/29 20:09:34;;;;;;;1.67;1.20;;;10.40;44.80;;;;;;10464752;28;20229;-72
2021/01/29 20:14:36;;;;;;;1.33;1.07;;;10.40;44.90;;;;;;10463827;28;20217;-72
2021/01/29 20:19:41;;;;;;;2.00;1.30;;;10.30;44.90;;;;;;10463800;28;20303;-70
2021/01/29 20:24:46;;;;;;;1.40;1.00;;;10.20;45.20;;;;;;10460831;28;20256;-69
2021/01/29 20:29:48;;;;;;;1.73;1.20;;;10.20;45.10;;;;;;10459637;28;20610;-69
2021/01/29 20:34:51;;;;;;;2.30;1.20;;;10.20;45.00;;;;;;10461838;28;20225;-69
2021/01/29 20:39:53;;;;;;;2.00;1.17;;;10.20;45.10;;;;;;10460643;28;20606;-69
2021/01/29 20:44:55;;;;;;;2.80;1.10;;;10.20;45.00;;;;;;10455940;28;20231;-69
2021/01/29 20:49:59;;;;;;;1.60;1.13;;;10.20;45.10;;;;;;10458780;28;20237;-69
2021/01/29 20:55:01;;;;;;;5.27;3.47;;;10.20;45.30;;;;;;10462355;28;20609;-69
2021/01/29 21:00:06;;;;;;;4.77;3.60;;;10.20;45.10;;;;;;10411456;28;20230;-69
2021/01/29 21:05:10;;;;;;;4.10;3.23;;;10.10;45.30;;;;;;10410427;28;20232;-69
2021/01/29 21:10:14;;;;;;;3.40;1.70;;;10.10;45.20;;;;;;10414907;28;20232;-69
2021/01/29 21:15:16;;;;;;;2.87;1.40;;;10.00;45.20;;;;;;10422416;28;20220;-69
2021/01/29 21:20:25;;;;;;;1.90;1.37;;;10.00;45.30;;;;;;10452900;28;20768;-69
2021/01/29 21:25:29;;;;;;;2.70;1.20;;;9.90;46.70;;;;;;10455516;28;20239;-69
2021/01/29 21:30:32;;;;;;;1.63;1.00;;;9.90;46.70;;;;;;10464709;28;20231;-71
2021/01/29 21:35:38;;;;;;;1.10;1.00;;;9.90;46.70;;;;;;10451043;28;20239;-70
2021/01/29 21:40:41;;;;;;;2.87;1.10;;;9.90;46.70;;;;;;10464555;28;20344;-70
2021/01/29 21:45:44;;;;;;;1.53;1.00;;;9.90;46.70;;;;;;10456261;28;20229;-70
2021/01/29 21:50:48;;;;;;;1.10;1.00;;;9.90;46.70;;;;;;10481665;28;20388;-73
2021/01/29 21:55:50;;;;;;;0.90;0.90;;;9.90;46.70;;;;;;10474521;28;20720;-73
2021/01/29 22:00:53;;;;;;;1.37;0.80;;;9.90;46.70;;;;;;10468007;28;20245;-73
2021/01/29 22:05:56;;;;;;;1.03;0.90;;;9.90;46.70;;;;;;10470927;28;20232;-74
2021/01/29 22:11:14;;;;;;;0.80;0.70;;;9.90;46.70;;;;;;10476733;27;20220;-73
2021/01/29 22:16:16;;;;;;;0.77;0.77;;;9.80;46.60;;;;;;10474772;27;20225;-74
2021/01/29 22:21:20;;;;;;;0.63;0.63;;;9.80;46.80;;;;;;10477083;27;20287;-73
2021/01/29 22:26:22;;;;;;;1.10;0.77;;;9.70;46.90;;;;;;10465577;27;20233;-73
2021/01/29 22:31:26;;;;;;;0.70;0.67;;;9.70;47.00;;;;;;10471057;27;20265;-73
2021/01/29 22:36:29;;;;;;;0.80;0.80;;;9.70;46.80;;;;;;10474759;28;20256;-73
2021/01/29 22:41:32;;;;;;;0.83;0.70;;;9.70;47.00;;;;;;10476544;27;20221;-73
2021/01/29 22:46:34;;;;;;;0.60;0.60;;;9.60;46.90;;;;;;10470855;27;20593;-73
2021/01/29 22:51:38;;;;;;;0.83;0.83;;;9.60;46.90;;;;;;10472387;27;20228;-73
2021/01/29 22:56:41;;;;;;;1.80;1.43;;;9.60;47.10;;;;;;10477137;27;20797;-73
2021/01/29 23:01:44;;;;;;;1.40;1.30;;;9.60;47.20;;;;;;10469057;27;20228;-73
2021/01/29 23:06:47;;;;;;;1.07;0.90;;;9.60;47.20;;;;;;10486080;28;20232;-73
2021/01/29 23:11:49;;;;;;;0.90;0.80;;;9.60;47.30;;;;;;10476087;27;20666;-73
2021/01/29 23:16:53;;;;;;;1.23;0.60;;;9.60;47.00;;;;;;10467234;28;20233;-73
2021/01/29 23:21:58;;;;;;;0.60;0.60;;;9.60;47.20;;;;;;10462895;27;20233;-73
2021/01/29 23:27:00;;;;;;;0.50;0.50;;;9.50;47.20;;;;;;10474436;27;20233;-73
2021/01/29 23:32:02;;;;;;;1.37;0.67;;;9.50;47.00;;;;;;10482822;27;20231;-72
2021/01/29 23:37:06;;;;;;;0.60;0.60;;;9.60;47.20;;;;;;10481317;27;20236;-72
2021/01/29 23:42:08;;;;;;;0.60;0.60;;;9.60;47.10;;;;;;10470248;28;20220;-73
2021/01/29 23:47:10;;;;;;;0.50;0.50;;;9.60;47.10;;;;;;10450226;28;20226;-72
2021/01/29 23:52:14;;;;;;;0.60;0.60;;;9.60;47.00;;;;;;10460997;28;20327;-73
2021/01/29 23:57:16;;;;;;;1.80;0.60;;;9.60;47.10;;;;;;10481237;28;20662;-73
